Time;durP1;ratioP1;P1;durP2;ratioP2;P2;SDS_P1;SDS_P2;PMS_P1;PMS_P2;Temp;Humidity;BMP_temperature;BMP_pressure;BME280_temperature;BME280_humidity;BME280_pressure;Samples;Min_cycle;Max_cycle;Signal;HPM_P1;HPM_P2
2022/10/27 00:00:34;;;;;;;4.00;1.70;;;;;;;11.83;nan;101288.69;5084680;28;20067;-68
2022/10/27 00:03:00;;;;;;;2.20;1.60;;;;;;;11.79;nan;101295.22;5081823;28;20041;-68
2022/10/27 00:05:25;;;;;;;3.10;1.70;;;;;;;11.72;nan;101288.81;5085392;28;20086;-68
2022/10/27 00:07:50;;;;;;;2.25;1.52;;;;;;;11.67;nan;101291.06;5084811;28;20155;-68
2022/10/27 00:10:16;;;;;;;2.33;1.30;;;;;;;11.60;nan;101288.13;5083662;28;20281;-68
2022/10/27 00:12:42;;;;;;;3.97;1.70;;;;;;;11.55;nan;101298.31;5085029;28;20082;-68
2022/10/27 00:15:09;;;;;;;4.47;2.17;;;;;;;11.65;nan;101298.31;5082286;28;20501;-68
2022/10/27 00:17:34;;;;;;;2.42;1.73;;;;;;;11.54;nan;101286.06;5085178;28;20032;-68
2022/10/27 00:19:59;;;;;;;;;;;;;;;11.43;nan;101294.97;5082129;28;20120;-68
2022/10/27 00:22:24;;;;;;;2.90;1.43;;;;;;;11.37;nan;101289.38;5085275;28;20377;-68
2022/10/27 00:24:50;;;;;;;3.08;1.50;;;;;;;11.46;nan;101294.72;5079116;28;20422;-68
2022/10/27 00:27:15;;;;;;;2.70;1.70;;;;;;;11.50;nan;101295.25;5084950;28;20393;-68
2022/10/27 00:29:40;;;;;;;;;;;;;;;11.35;nan;101302.78;5084498;28;20503;-68
2022/10/27 00:32:05;;;;;;;;;;;;;;;11.23;nan;101310.00;5085348;28;19953;-68
2022/10/27 00:34:31;;;;;;;6.27;2.23;;;;;;;11.14;nan;101309.97;5083867;28;19916;-68
2022/10/27 00:36:56;;;;;;;2.30;1.73;;;;;;;11.25;nan;101316.00;5075365;28;20993;-68
2022/10/27 00:39:21;;;;;;;2.28;1.30;;;;;;;11.18;nan;101317.50;5082938;28;20117;-67
2022/10/27 00:41:47;;;;;;;2.33;1.47;;;;;;;11.13;nan;101321.53;5076538;28;20043;-68
2022/10/27 00:44:35;;;;;;;3.05;1.33;;;;;;;11.07;nan;101320.28;5066737;28;20282;-68
2022/10/27 00:47:15;;;;;;;3.78;1.60;;;;;;;11.03;nan;101303.81;5083586;28;20039;-68
2022/10/27 00:50:05;;;;;;;2.85;1.77;;;;;;;10.97;nan;101304.38;5078847;28;20370;-68
2022/10/27 00:52:40;;;;;;;5.80;1.70;;;;;;;10.96;nan;101302.69;5086495;28;20043;-69
2022/10/27 00:55:12;;;;;;;3.58;1.70;;;;;;;10.96;nan;101309.78;5070664;28;20111;-68
2022/10/27 00:57:39;;;;;;;2.40;1.75;;;;;;;10.93;nan;101302.13;5070516;28;20052;-68
2022/10/27 01:00:05;;;;;;;4.38;1.70;;;;;;;11.08;nan;101303.41;5084896;28;20485;-68
2022/10/27 01:02:33;;;;;;;2.58;1.50;;;;;;;11.02;nan;101290.72;5089208;28;20065;-68
2022/10/27 01:05:13;;;;;;;2.08;1.30;;;;;;;10.98;nan;101287.50;5091211;28;20419;-68
2022/10/27 01:07:41;;;;;;;2.95;1.40;;;;;;;10.97;nan;101291.13;5070449;28;20044;-68
2022/10/27 01:10:07;;;;;;;3.17;1.40;;;;;;;10.93;nan;101287.06;5071808;28;20040;-68
2022/10/27 01:12:33;;;;;;;4.03;1.60;;;;;;;10.89;nan;101282.19;5090257;28;20028;-68
2022/10/27 01:14:58;;;;;;;2.58;1.67;;;;;;;10.86;nan;101285.94;5090173;28;20111;-67
2022/10/27 01:17:26;;;;;;;3.75;1.70;;;;;;;10.85;nan;101286.94;5070284;28;20455;-68
2022/10/27 01:20:17;;;;;;;3.03;1.65;;;;;;;10.80;nan;101292.63;5078795;28;20040;-69
2022/10/27 01:23:03;;;;;;;2.88;1.67;;;;;;;10.79;nan;101290.09;5097666;27;20295;-68
2022/10/27 01:25:52;;;;;;;2.20;1.50;;;;;;;10.90;nan;101295.28;5085607;28;20404;-68
2022/10/27 01:28:23;;;;;;;2.10;1.30;;;;;;;10.84;nan;101290.53;5069685;28;20041;-68
2022/10/27 01:31:03;;;;;;;3.67;1.40;;;;;;;10.80;nan;101292.63;5083380;28;20474;-68
2022/10/27 01:33:39;;;;;;;2.60;1.40;;;;;;;10.77;nan;101286.75;5084463;28;20041;-67
2022/10/27 01:36:19;;;;;;;3.42;1.60;;;;;;;10.75;nan;101294.84;5072597;28;20067;-68
2022/10/27 01:39:00;;;;;;;2.47;1.60;;;;;;;10.72;nan;101288.97;5082210;28;20036;-69
2022/10/27 01:41:32;;;;;;;4.55;1.92;;;;;;;10.72;nan;101292.44;5070694;28;20098;-67
2022/10/27 01:44:03;;;;;;;2.95;1.60;;;;;;;10.71;nan;101289.94;5077881;28;20067;-68
2022/10/27 01:46:29;;;;;;;3.15;1.60;;;;;;;10.66;nan;101287.69;5089517;28;20321;-68
2022/10/27 01:48:54;;;;;;;2.20;1.30;;;;;;;10.62;nan;101289.75;5087438;28;20473;-68
2022/10/27 01:51:20;;;;;;;2.45;1.80;;;;;;;10.57;nan;101277.91;5089631;28;20024;-68
2022/10/27 01:53:47;;;;;;;2.88;1.60;;;;;;;10.57;nan;101280.56;5089100;28;20040;-68
2022/10/27 01:56:31;;;;;;;2.60;1.55;;;;;;;10.54;nan;101272.91;5088557;28;20474;-68
2022/10/27 01:59:21;;;;;;;3.67;1.63;;;;;;;10.51;nan;101271.38;5069256;28;20525;-68
2022/10/27 02:01:56;;;;;;;2.45;1.30;;;;;;;10.52;nan;101277.47;5076574;28;20093;-68
2022/10/27 02:04:45;;;;;;;2.78;1.30;;;;;;;10.52;nan;101277.47;5086788;28;20538;-67
2022/10/27 02:07:34;;;;;;;1.85;1.30;;;;;;;10.51;nan;101274.00;5079822;28;20074;-68
2022/10/27 02:10:09;;;;;;;3.85;1.73;;;;;;;10.52;nan;101272.19;5089170;28;20545;-67
2022/10/27 02:12:37;;;;;;;4.93;2.60;;;;;;;10.59;nan;101273.34;5087755;28;20067;-69
2022/10/27 02:15:07;;;;;;;6.43;3.47;;;;;;;10.93;nan;101275.66;5089324;28;20237;-68
2022/10/27 02:17:38;;;;;;;9.15;3.15;;;;;;;11.21;nan;101274.03;5076406;28;20469;-68
2022/10/27 02:20:10;;;;;;;5.95;2.58;;;;;;;11.38;nan;101277.81;5067996;28;20510;-68
2022/10/27 02:22:35;;;;;;;5.32;2.95;;;;;;;11.57;nan;101280.47;5070341;28;20048;-68
2022/10/27 02:25:01;;;;;;;7.63;3.35;;;;;;;11.73;nan;101284.34;5068953;28;20449;-68
2022/10/27 02:27:35;;;;;;;8.32;3.38;;;;;;;11.85;nan;101277.94;5077428;28;20593;-68
2022/10/27 02:30:02;;;;;;;;;;;;;;;11.94;nan;101286.88;5076212;28;20052;-68
2022/10/27 02:32:28;;;;;;;;;;;;;;;12.00;nan;101281.03;5089217;28;20348;-68
2022/10/27 02:34:55;;;;;;;;;;;;;;;12.03;nan;101289.50;5089302;28;19916;-68
2022/10/27 02:37:29;;;;;;;;;;;;;;;12.09;nan;101286.31;5088289;28;19912;-68
2022/10/27 02:39:54;;;;;;;;;;;;;;;12.14;nan;101287.69;5081085;28;19916;-69
2022/10/27 02:42:19;;;;;;;;;;;;;;;12.16;nan;101289.22;5072142;28;19920;-68
2022/10/27 02:44:44;;;;;;;;;;;;;;;12.20;nan;101284.44;5089540;28;19947;-68
2022/10/27 02:47:09;;;;;;;;;;;;;;;12.30;nan;101285.28;5087622;28;19947;-68
2022/10/27 02:49:34;;;;;;;;;;;;;;;12.31;nan;101285.13;5079909;28;19915;-68
2022/10/27 02:52:01;;;;;;;;;;;;;;;12.30;nan;101285.28;5088167;28;20375;-68
2022/10/27 02:54:26;;;;;;;;;;;;;;;12.26;nan;101279.41;5088245;28;19920;-68
2022/10/27 02:56:51;;;;;;;;;;;;;;;12.23;nan;101281.53;5089566;28;19912;-69
2022/10/27 02:59:17;;;;;;;6.23;2.63;;;;;;;12.21;nan;101278.19;5068678;28;20392;-68
2022/10/27 03:01:42;;;;;;;6.10;3.05;;;;;;;12.18;nan;101278.44;5075969;28;20048;-68
2022/10/27 03:04:07;;;;;;;4.25;2.30;;;;;;;12.18;nan;101274.00;5069876;28;20040;-67
2022/10/27 03:06:33;;;;;;;5.32;2.20;;;;;;;12.17;nan;101274.97;5092097;28;20035;-68
2022/10/27 03:08:58;;;;;;;4.05;2.63;;;;;;;12.14;nan;101274.44;5071304;28;20043;-68
2022/10/27 03:11:23;;;;;;;5.95;2.88;;;;;;;12.01;nan;101267.63;5067599;28;20032;-68
2022/10/27 03:13:48;;;;;;;4.75;2.60;;;;;;;11.90;nan;101267.78;5082345;28;20161;-67
2022/10/27 03:16:14;;;;;;;4.43;2.50;;;;;;;11.75;nan;101256.78;5087276;28;20082;-68
2022/10/27 03:18:39;;;;;;;3.78;2.13;;;;;;;11.64;nan;101259.56;5082774;28;20275;-67
2022/10/27 03:21:05;;;;;;;3.83;2.10;;;;;;;11.57;nan;101253.16;5070389;28;20028;-68
2022/10/27 03:23:30;;;;;;;6.05;2.17;;;;;;;11.52;nan;101258.03;5104147;28;20286;-68
2022/10/27 03:25:55;;;;;;;3.88;2.10;;;;;;;11.47;nan;101261.09;5091312;28;20337;-67
2022/10/27 03:28:20;;;;;;;6.20;2.42;;;;;;;11.44;nan;101256.94;5067019;28;20040;-68
2022/10/27 03:30:46;;;;;;;3.80;2.33;;;;;;;11.44;nan;101261.34;5080551;28;20036;-68
2022/10/27 03:33:11;;;;;;;4.00;1.98;;;;;;;11.39;nan;101259.16;5087807;28;20031;-68
2022/10/27 03:35:36;;;;;;;4.20;2.13;;;;;;;11.33;nan;101270.28;5064579;28;20392;-67
2022/10/27 03:38:02;;;;;;;3.08;1.90;;;;;;;11.29;nan;101268.06;5066964;28;20032;-69
2022/10/27 03:40:28;;;;;;;3.42;2.05;;;;;;;11.25;nan;101272.81;5070420;28;20075;-67
2022/10/27 03:42:57;;;;;;;3.53;1.98;;;;;;;11.23;nan;101270.28;5087609;28;20040;-67
2022/10/27 03:45:24;;;;;;;4.95;2.20;;;;;;;11.17;nan;101286.72;5085565;28;20528;-68
2022/10/27 03:48:04;;;;;;;5.95;2.63;;;;;;;11.14;nan;101273.75;5067507;28;20040;-67
2022/10/27 03:50:30;;;;;;;5.50;2.43;;;;;;;11.09;nan;101275.97;5085014;28;20079;-68
2022/10/27 03:52:56;;;;;;;3.90;1.83;;;;;;;11.06;nan;101276.25;5080053;28;20052;-68
2022/10/27 03:55:22;;;;;;;6.63;3.00;;;;;;;11.08;nan;101276.94;5087464;28;20123;-68
2022/10/27 03:57:47;;;;;;;5.20;2.70;;;;;;;11.03;nan;101277.34;5087664;28;20376;-67
2022/10/27 04:00:14;;;;;;;5.78;2.72;;;;;;;10.96;nan;101278.03;5080639;28;20455;-67
2022/10/27 04:02:39;;;;;;;4.32;2.10;;;;;;;10.89;nan;101271.59;5067006;28;20043;-67
2022/10/27 04:05:05;;;;;;;3.50;2.08;;;;;;;10.84;nan;101278.16;5077152;28;20059;-68
2022/10/27 04:07:30;;;;;;;5.32;2.05;;;;;;;10.78;nan;101273.41;5084458;28;20046;-68
2022/10/27 04:09:55;;;;;;;4.55;2.45;;;;;;;10.74;nan;101282.56;5087578;28;20040;-67
2022/10/27 04:12:20;;;;;;;4.63;2.60;;;;;;;10.68;nan;101274.31;5086312;28;20440;-68
2022/10/27 04:14:47;;;;;;;4.80;2.92;;;;;;;10.63;nan;101272.94;5087634;28;20274;-68
2022/10/27 04:17:12;;;;;;;4.18;2.30;;;;;;;10.55;nan;101269.28;5075699;28;20059;-68
2022/10/27 04:19:38;;;;;;;3.22;2.05;;;;;;;10.50;nan;101269.69;5066780;28;20032;-68
2022/10/27 04:22:03;;;;;;;2.28;1.65;;;;;;;10.44;nan;101264.06;5092966;28;20552;-68
2022/10/27 04:24:28;;;;;;;2.70;1.90;;;;;;;10.41;nan;101267.81;5091684;28;20040;-67
2022/10/27 04:26:53;;;;;;;3.42;2.10;;;;;;;10.35;nan;101268.38;5080458;28;20036;-68
2022/10/27 04:29:19;;;;;;;4.18;2.13;;;;;;;10.32;nan;101271.25;5076687;28;20497;-68
2022/10/27 04:31:44;;;;;;;3.37;2.33;;;;;;;10.28;nan;101269.84;5089127;28;20028;-67
2022/10/27 04:34:09;;;;;;;2.58;1.70;;;;;;;10.24;nan;101274.53;5090693;28;20278;-68
2022/10/27 04:36:34;;;;;;;4.32;2.17;;;;;;;10.23;nan;101280.78;5083617;28;20040;-68
2022/10/27 04:39:00;;;;;;;3.92;2.28;;;;;;;10.19;nan;101276.72;5073511;28;20028;-67
2022/10/27 04:41:25;;;;;;;4.88;2.83;;;;;;;10.17;nan;101276.84;5090575;28;20067;-67
2022/10/27 04:43:51;;;;;;;6.07;2.80;;;;;;;10.13;nan;101279.88;5090758;28;20032;-68
2022/10/27 04:46:16;;;;;;;4.50;2.67;;;;;;;10.10;nan;101278.34;5080644;28;20332;-67
2022/10/27 04:48:42;;;;;;;3.85;2.33;;;;;;;10.07;nan;101277.78;5074144;28;20503;-67
2022/10/27 04:51:07;;;;;;;4.10;2.85;;;;;;;10.06;nan;101271.66;5090870;28;20024;-68
2022/10/27 04:53:32;;;;;;;6.30;2.67;;;;;;;10.12;nan;101272.94;5090434;28;20126;-68
2022/10/27 04:55:58;;;;;;;8.02;3.00;;;;;;;10.20;nan;101278.38;5069647;28;20040;-68
2022/10/27 04:58:23;;;;;;;4.57;2.97;;;;;;;10.24;nan;101279.81;5070150;28;20028;-68
2022/10/27 05:00:51;;;;;;;4.18;3.10;;;;;;;10.33;nan;101281.69;5078262;28;20101;-67
2022/10/27 05:03:16;;;;;;;4.80;3.60;;;;;;;10.38;nan;101278.66;5074069;28;20039;-68
2022/10/27 05:05:41;;;;;;;4.45;3.08;;;;;;;10.41;nan;101273.09;5094752;28;20028;-68
2022/10/27 05:08:09;;;;;;;3.83;3.08;;;;;;;10.38;nan;101270.75;5085602;28;20504;-67
2022/10/27 05:10:34;;;;;;;6.25;3.47;;;;;;;10.38;nan;101274.22;5088003;28;20036;-69
2022/10/27 05:13:00;;;;;;;5.30;3.53;;;;;;;10.39;nan;101267.09;5087531;28;20070;-69
2022/10/27 05:15:26;;;;;;;5.45;3.08;;;;;;;10.40;nan;101268.81;5085997;28;20039;-69
2022/10/27 05:17:51;;;;;;;5.38;3.60;;;;;;;10.41;nan;101279.22;5087557;28;20043;-66
2022/10/27 05:20:17;;;;;;;4.85;3.70;;;;;;;10.37;nan;101275.19;5086712;28;20040;-67
2022/10/27 05:22:42;;;;;;;4.05;2.88;;;;;;;10.36;nan;101272.66;5073613;28;20040;-66
2022/10/27 05:25:08;;;;;;;3.10;2.28;;;;;;;10.33;nan;101279.06;5086547;28;20538;-69
2022/10/27 05:27:34;;;;;;;3.38;2.30;;;;;;;10.28;nan;101278.63;5086190;28;20050;-69
2022/10/27 05:29:59;;;;;;;3.10;2.20;;;;;;;10.25;nan;101284.16;5086841;28;20549;-66
2022/10/27 05:32:24;;;;;;;3.85;2.17;;;;;;;10.24;nan;101297.47;5087660;28;20471;-67
2022/10/27 05:34:50;;;;;;;3.25;2.25;;;;;;;10.21;nan;101295.94;5085392;28;20073;-69
2022/10/27 05:37:15;;;;;;;3.63;2.33;;;;;;;10.18;nan;101297.03;5076464;28;20044;-67
2022/10/27 05:39:40;;;;;;;3.75;2.17;;;;;;;10.14;nan;101300.06;5084826;28;20061;-66
2022/10/27 05:42:05;;;;;;;2.55;1.80;;;;;;;10.08;nan;101301.44;5089552;28;20447;-67
2022/10/27 05:44:31;;;;;;;2.45;1.63;;;;;;;10.02;nan;101298.47;5086175;28;20036;-66
2022/10/27 05:46:56;;;;;;;3.25;2.00;;;;;;;9.96;nan;101294.53;5086980;28;20040;-66
2022/10/27 05:49:21;;;;;;;3.33;2.00;;;;;;;9.92;nan;101285.19;5084300;28;20046;-66
2022/10/27 05:51:51;;;;;;;2.83;1.95;;;;;;;9.92;nan;101280.75;5086487;28;20040;-69
2022/10/27 05:54:16;;;;;;;4.35;2.40;;;;;;;9.91;nan;101281.69;5088293;28;20040;-69
2022/10/27 05:56:42;;;;;;;3.78;2.20;;;;;;;9.88;nan;101271.41;5089908;28;20511;-67
2022/10/27 05:59:09;;;;;;;2.85;1.90;;;;;;;9.86;nan;101280.41;5071224;28;20040;-66
2022/10/27 06:01:34;;;;;;;3.38;1.90;;;;;;;9.82;nan;101271.06;5083147;28;20028;-67
2022/10/27 06:03:59;;;;;;;5.43;2.85;;;;;;;9.77;nan;101267.03;5089156;28;20039;-66
2022/10/27 06:06:25;;;;;;;4.45;2.80;;;;;;;9.76;nan;101272.44;5098040;28;20042;-69
2022/10/27 06:08:50;;;;;;;3.47;2.40;;;;;;;9.73;nan;101270.06;5109772;28;20122;-67
2022/10/27 06:11:15;;;;;;;4.22;2.60;;;;;;;9.72;nan;101271.00;5086057;28;20287;-69
2022/10/27 06:13:40;;;;;;;3.88;2.83;;;;;;;9.73;nan;101264.78;5069351;28;20029;-66
2022/10/27 06:16:06;;;;;;;4.40;3.00;;;;;;;9.74;nan;101269.91;5076900;28;20054;-70
2022/10/27 06:18:31;;;;;;;5.28;3.10;;;;;;;9.76;nan;101267.97;5087852;28;20275;-69
2022/10/27 06:20:56;;;;;;;4.40;2.97;;;;;;;9.77;nan;101267.03;5069199;28;20037;-66
2022/10/27 06:23:22;;;;;;;4.97;3.00;;;;;;;9.79;nan;101266.88;5102360;28;20101;-66
2022/10/27 06:25:47;;;;;;;5.95;2.60;;;;;;;9.81;nan;101264.94;5070443;28;20043;-69
2022/10/27 06:28:12;;;;;;;3.92;2.65;;;;;;;9.83;nan;101259.56;5068470;28;20467;-67
2022/10/27 06:30:37;;;;;;;3.63;2.40;;;;;;;9.85;nan;101265.56;5085325;28;20039;-69
2022/10/27 06:33:03;;;;;;;4.13;2.90;;;;;;;9.86;nan;101269.84;5088694;28;20036;-69
2022/10/27 06:35:28;;;;;;;4.82;2.90;;;;;;;9.86;nan;101262.75;5073182;28;20091;-69
2022/10/27 06:37:53;;;;;;;4.32;2.50;;;;;;;9.86;nan;101275.97;5068647;28;20032;-68
2022/10/27 06:40:19;;;;;;;4.57;2.53;;;;;;;9.89;nan;101274.88;5081474;28;20496;-69
2022/10/27 06:42:48;;;;;;;4.20;3.03;;;;;;;9.89;nan;101274.88;5089284;28;20266;-68
2022/10/27 06:45:17;;;;;;;4.07;2.83;;;;;;;9.92;nan;101282.56;5058269;28;20093;-68
2022/10/27 06:47:43;;;;;;;5.53;2.85;;;;;;;9.98;nan;101284.66;5054273;28;20039;-69
2022/10/27 06:50:09;;;;;;;5.63;2.67;;;;;;;10.03;nan;101294.84;5054722;28;20036;-69
2022/10/27 06:52:35;;;;;;;4.80;3.20;;;;;;;10.07;nan;101280.41;5052157;28;20157;-69
2022/10/27 06:55:00;;;;;;;6.28;3.45;;;;;;;10.12;nan;101289.63;5088661;28;20077;-69
2022/10/27 06:57:26;;;;;;;4.40;2.78;;;;;;;10.18;nan;101290.94;5088384;28;20660;-69
2022/10/27 06:59:51;;;;;;;5.53;2.55;;;;;;;10.24;nan;101300.13;5068258;28;20032;-67
2022/10/27 07:02:16;;;;;;;5.00;3.10;;;;;;;10.29;nan;101306.72;5067138;28;20044;-67
2022/10/27 07:04:41;;;;;;;5.18;3.75;;;;;;;10.38;nan;101305.94;5088504;28;20816;-66
2022/10/27 07:07:07;;;;;;;5.60;3.35;;;;;;;10.45;nan;101310.72;5092922;28;20039;-67
2022/10/27 07:09:32;;;;;;;6.43;4.18;;;;;;;10.52;nan;101314.50;5071319;28;20094;-66
2022/10/27 07:11:57;;;;;;;7.18;4.80;;;;;;;10.58;nan;101319.25;5067873;28;20112;-69
2022/10/27 07:14:22;;;;;;;6.13;4.40;;;;;;;10.66;nan;101318.59;5068858;28;20048;-66
2022/10/27 07:16:48;;;;;;;5.03;3.40;;;;;;;10.71;nan;101322.53;5067831;28;20396;-67
2022/10/27 07:19:13;;;;;;;4.57;3.60;;;;;;;10.78;nan;101331.59;5082835;28;20036;-69
2022/10/27 07:21:38;;;;;;;4.10;3.08;;;;;;;10.86;nan;101336.22;5093559;28;20032;-67
2022/10/27 07:24:04;;;;;;;5.68;4.22;;;;;;;10.89;nan;101324.53;5106063;28;20032;-67
2022/10/27 07:26:29;;;;;;;5.82;3.90;;;;;;;10.93;nan;101344.47;5099672;28;20039;-69
2022/10/27 07:28:54;;;;;;;4.28;3.60;;;;;;;11.00;nan;101337.66;5067794;28;20052;-67
2022/10/27 07:31:20;;;;;;;3.95;3.20;;;;;;;11.10;nan;101346.47;5069189;28;20036;-67
2022/10/27 07:33:45;;;;;;;4.35;3.53;;;;;;;11.25;nan;101350.41;5088445;28;20040;-69
2022/10/27 07:36:10;;;;;;;4.43;3.58;;;;;;;11.42;nan;101358.69;5081171;28;20036;-68
2022/10/27 07:38:37;;;;;;;4.03;3.58;;;;;;;11.59;nan;101357.16;5089075;28;20056;-67
2022/10/27 07:41:02;;;;;;;6.10;4.28;;;;;;;11.55;nan;101359.22;5072539;28;20456;-67
2022/10/27 07:43:27;;;;;;;5.85;4.57;;;;;;;11.44;nan;101369.94;5067761;28;20025;-67
2022/10/27 07:45:52;;;;;;;3.73;3.13;;;;;;;11.64;nan;101352.28;5079405;28;20512;-69
2022/10/27 07:48:18;;;;;;;6.00;4.13;;;;;;;11.63;nan;101358.53;5087451;28;20106;-67
2022/10/27 07:50:44;;;;;;;5.40;3.60;;;;;;;11.64;nan;101350.47;5076033;28;20028;-69
2022/10/27 07:53:10;;;;;;;6.50;4.80;;;;;;;11.57;nan;101354.63;5067603;28;20655;-67
2022/10/27 07:55:36;;;;;;;4.82;4.30;;;;;;;11.62;nan;101356.88;5077866;28;20032;-67
2022/10/27 07:58:06;;;;;;;5.22;4.57;;;;;;;11.63;nan;101347.94;5087684;28;20065;-67
2022/10/27 08:00:34;;;;;;;6.20;4.20;;;;;;;11.66;nan;101352.97;5078146;28;20060;-67
2022/10/27 08:03:00;;;;;;;6.35;4.63;;;;;;;11.65;nan;101352.13;5071756;28;20028;-67
2022/10/27 08:05:26;;;;;;;6.88;4.47;;;;;;;11.74;nan;101344.34;5084322;28;20120;-67
2022/10/27 08:07:56;;;;;;;4.85;3.78;;;;;;;11.78;nan;101341.28;5081122;28;20115;-67
2022/10/27 08:10:32;;;;;;;5.40;4.03;;;;;;;11.86;nan;101333.44;5083425;28;20234;-68
2022/10/27 08:12:57;;;;;;;5.72;4.25;;;;;;;11.97;nan;101335.16;5071804;28;20044;-68
2022/10/27 08:15:23;;;;;;;5.82;4.03;;;;;;;12.06;nan;101336.97;5068837;28;20044;-68
2022/10/27 08:17:53;;;;;;;5.80;4.32;;;;;;;12.17;nan;101340.44;5091956;28;20452;-67
2022/10/27 08:20:18;;;;;;;6.05;4.57;;;;;;;12.22;nan;101346.13;5092255;28;20028;-67
2022/10/27 08:22:44;;;;;;;5.15;4.20;;;;;;;12.28;nan;101338.47;5105606;28;20530;-67
2022/10/27 08:25:09;;;;;;;6.28;4.63;;;;;;;12.33;nan;101338.03;5073461;28;20488;-67
2022/10/27 08:27:34;;;;;;;6.68;4.40;;;;;;;12.38;nan;101335.78;5076438;28;20048;-67
2022/10/27 08:30:00;;;;;;;6.70;4.10;;;;;;;12.41;nan;101338.13;5087401;28;20119;-68
2022/10/27 08:32:25;;;;;;;4.28;3.15;;;;;;;12.49;nan;101337.44;5063429;28;20048;-67
2022/10/27 08:34:51;;;;;;;4.60;3.70;;;;;;;12.54;nan;101338.66;5082921;28;20131;-68
2022/10/27 08:37:16;;;;;;;6.03;3.75;;;;;;;12.59;nan;101343.53;5080314;28;20412;-67
2022/10/27 08:39:41;;;;;;;5.57;4.10;;;;;;;12.70;nan;101335.41;5080076;28;20051;-67
2022/10/27 08:42:54;;;;;;;5.13;3.95;;;;;;;12.79;nan;101343.47;5083677;28;20036;-68
2022/10/27 08:45:27;;;;;;;6.05;3.70;;;;;;;12.94;nan;101344.63;5053457;28;20024;-68
2022/10/27 08:47:56;;;;;;;4.95;3.90;;;;;;;13.03;nan;101349.06;5091470;28;20060;-68
2022/10/27 08:50:25;;;;;;;6.70;3.97;;;;;;;13.16;nan;101352.22;5087552;28;20028;-68
2022/10/27 08:52:58;;;;;;;6.00;4.00;;;;;;;13.30;nan;101352.72;5091110;28;20047;-68
2022/10/27 08:55:28;;;;;;;8.43;5.60;;;;;;;13.41;nan;101357.81;5089500;28;20059;-68
2022/10/27 08:58:06;;;;;;;11.67;6.37;;;;;;;13.41;nan;101363.13;5071286;28;20036;-68
2022/10/27 09:00:45;;;;;;;10.52;7.13;;;;;;;13.48;nan;101368.69;5090560;28;20028;-67
2022/10/27 09:03:43;;;;;;;14.07;8.85;;;;;;;13.55;nan;101367.13;5074258;28;20169;-68
2022/10/27 09:06:15;;;;;;;13.27;9.38;;;;;;;13.69;nan;101379.88;5061150;28;20032;-68
2022/10/27 09:08:50;;;;;;;17.05;11.55;;;;;;;13.81;nan;101375.16;5090570;28;20035;-67
2022/10/27 09:11:30;;;;;;;19.90;11.77;;;;;;;13.94;nan;101372.97;5089817;28;20103;-68
2022/10/27 09:14:05;;;;;;;17.45;10.93;;;;;;;14.02;nan;101369.53;5071708;28;20094;-67
2022/10/27 09:16:43;;;;;;;19.58;12.35;;;;;;;14.09;nan;101364.44;5072211;28;20054;-68
2022/10/27 09:19:15;;;;;;;21.80;15.13;;;;;;;14.07;nan;101369.09;5070140;28;20040;-67
2022/10/27 09:21:42;;;;;;;21.65;13.80;;;;;;;14.20;nan;101365.00;5095770;28;20032;-68
2022/10/27 09:24:13;;;;;;;21.10;12.95;;;;;;;14.33;nan;101366.47;5078597;28;20115;-68
2022/10/27 09:26:40;;;;;;;20.95;11.63;;;;;;;14.48;nan;101364.06;5089088;28;20217;-68
2022/10/27 09:29:19;;;;;;;18.23;11.60;;;;;;;14.64;nan;101364.19;5090866;28;20051;-67
2022/10/27 09:31:54;;;;;;;16.25;11.40;;;;;;;14.79;nan;101361.75;5068411;28;20571;-68
2022/10/27 09:34:27;;;;;;;17.38;11.98;;;;;;;14.86;nan;101354.81;5082682;28;20029;-68
2022/10/27 09:36:53;;;;;;;24.38;14.93;;;;;;;14.88;nan;101358.16;5089186;28;20107;-68
2022/10/27 09:39:20;;;;;;;24.35;14.20;;;;;;;14.94;nan;101357.50;5071016;28;20584;-67
2022/10/27 09:41:45;;;;;;;20.23;13.27;;;;;;;15.05;nan;101351.88;5089328;28;20063;-67
2022/10/27 09:44:28;;;;;;;24.90;14.70;;;;;;;15.08;nan;101353.41;5083191;28;20033;-68
2022/10/27 09:46:54;;;;;;;20.30;13.10;;;;;;;15.17;nan;101355.09;5084172;28;20546;-68
2022/10/27 09:49:26;;;;;;;21.30;14.07;;;;;;;15.25;nan;101360.47;5082677;28;20051;-67
2022/10/27 09:52:02;;;;;;;18.90;12.65;;;;;;;15.34;nan;101361.31;5069113;28;20063;-68
2022/10/27 09:54:38;;;;;;;19.17;12.77;;;;;;;15.43;nan;101355.00;5069949;28;20036;-68
2022/10/27 09:57:08;;;;;;;19.02;11.93;;;;;;;15.46;nan;101352.00;5068749;28;20389;-68
2022/10/27 09:59:35;;;;;;;14.95;10.77;;;;;;;15.59;nan;101362.19;5068598;28;20035;-68
2022/10/27 10:02:04;;;;;;;16.10;10.63;;;;;;;15.67;nan;101350.72;5072253;28;20064;-68
2022/10/27 10:04:49;;;;;;;15.30;10.02;;;;;;;15.71;nan;101354.75;5068204;28;20032;-68
2022/10/27 10:07:37;;;;;;;17.40;10.88;;;;;;;15.77;nan;101348.75;5091747;28;20492;-68
2022/10/27 10:10:20;;;;;;;15.63;10.38;;;;;;;15.87;nan;101349.44;5087840;28;20036;-69
2022/10/27 10:12:46;;;;;;;19.10;11.55;;;;;;;15.95;nan;101343.25;5086489;28;20028;-68
2022/10/27 10:15:11;;;;;;;16.10;11.80;;;;;;;16.02;nan;101341.59;5088756;28;20035;-68
2022/10/27 10:17:51;;;;;;;14.27;9.67;;;;;;;16.15;nan;101335.72;5087822;28;20036;-68
2022/10/27 10:20:29;;;;;;;16.98;10.82;;;;;;;16.26;nan;101338.06;5090269;28;20520;-67
2022/10/27 10:22:54;;;;;;;15.38;10.30;;;;;;;16.72;nan;101332.09;5060748;28;20046;-68
2022/10/27 10:25:25;;;;;;;18.38;11.10;;;;;;;18.59;nan;101339.84;5105445;28;20028;-67
2022/10/27 10:27:59;;;;;;;14.55;9.00;;;;;;;20.87;nan;101330.25;5088681;28;20046;-68
2022/10/27 10:30:25;;;;;;;13.52;9.55;;;;;;;22.47;nan;101337.50;5087456;28;20040;-68
2022/10/27 10:32:55;;;;;;;11.38;7.30;;;;;;;23.90;nan;101344.50;5088213;28;20040;-68
2022/10/27 10:35:41;;;;;;;10.15;6.38;;;;;;;25.78;nan;101342.09;5088370;28;20032;-68
2022/10/27 10:38:25;;;;;;;7.68;4.80;;;;;;;27.15;nan;101344.59;5087397;28;20591;-68
2022/10/27 10:41:04;;;;;;;8.88;5.93;;;;;;;27.98;nan;101347.72;5062903;28;20408;-68
2022/10/27 10:43:31;;;;;;;9.13;5.13;;;;;;;28.73;nan;101340.94;5088154;28;20037;-69
2022/10/27 10:45:57;;;;;;;10.27;5.88;;;;;;;29.48;nan;101335.75;5088331;28;20072;-69
2022/10/27 10:48:28;;;;;;;9.52;5.68;;;;;;;30.04;nan;101342.50;5086790;28;20040;-69
2022/10/27 10:50:54;;;;;;;10.70;5.72;;;;;;;30.47;nan;101350.72;5068225;28;20024;-69
2022/10/27 10:53:41;;;;;;;7.40;5.05;;;;;;;31.04;nan;101344.41;5067631;28;20502;-69
2022/10/27 10:56:20;;;;;;;6.10;4.53;;;;;;;31.53;nan;101341.25;5079570;28;20044;-70
2022/10/27 10:58:48;;;;;;;8.00;4.32;;;;;;;31.91;nan;101328.06;5052571;28;20036;-69
2022/10/27 11:01:15;;;;;;;6.60;4.70;;;;;;;32.05;nan;101324.81;5068154;28;20070;-69
2022/10/27 11:03:44;;;;;;;9.93;5.57;;;;;;;32.00;nan;101322.09;5068066;28;20082;-69
2022/10/27 11:06:18;;;;;;;8.40;5.18;;;;;;;31.04;nan;101316.28;5087842;28;20083;-69
2022/10/27 11:08:57;;;;;;;7.22;5.13;;;;;;;29.99;nan;101319.84;5087459;28;20032;-69
2022/10/27 11:11:26;;;;;;;12.57;5.97;;;;;;;28.64;nan;101315.22;5087591;28;20376;-69
2022/10/27 11:14:06;;;;;;;7.03;5.03;;;;;;;27.70;nan;101303.25;5087682;28;20431;-69
2022/10/27 11:16:32;;;;;;;8.05;5.00;;;;;;;27.00;nan;101293.56;5079507;28;20036;-69
2022/10/27 11:19:00;;;;;;;4.65;3.25;;;;;;;26.40;nan;101290.16;5074972;28;20028;-69
2022/10/27 11:21:39;;;;;;;6.45;4.47;;;;;;;25.84;nan;101291.59;5087122;28;20057;-69
2022/10/27 11:24:38;;;;;;;8.88;5.00;;;;;;;25.26;nan;101278.75;5099946;28;20039;-69
2022/10/27 11:27:15;;;;;;;7.13;4.57;;;;;;;24.76;nan;101269.81;5087971;28;20493;-69
2022/10/27 11:29:46;;;;;;;8.63;5.13;;;;;;;24.14;nan;101264.47;5087538;28;20488;-69
2022/10/27 11:32:15;;;;;;;;;;;;;;;23.42;nan;101264.06;5087354;28;20028;-69
2022/10/27 11:35:02;;;;;;;6.53;4.10;;;;;;;23.35;nan;101265.16;5087443;28;19927;-69
2022/10/27 11:37:36;;;;;;;5.85;3.78;;;;;;;23.17;nan;101253.25;5086950;28;20039;-69
2022/10/27 11:40:11;;;;;;;9.80;5.78;;;;;;;23.03;nan;101244.41;5087223;28;20032;-68
2022/10/27 11:42:53;;;;;;;7.97;4.80;;;;;;;22.73;nan;101245.97;5081067;28;20043;-69
2022/10/27 11:45:28;;;;;;;8.30;4.70;;;;;;;22.57;nan;101249.97;5083255;28;20029;-69
2022/10/27 11:48:06;;;;;;;7.70;4.72;;;;;;;22.39;nan;101237.22;5075465;28;20075;-69
2022/10/27 11:50:38;;;;;;;7.10;4.38;;;;;;;22.20;nan;101249.66;5079139;28;20355;-68
2022/10/27 11:53:03;;;;;;;8.30;5.28;;;;;;;22.03;nan;101243.91;5067135;28;20039;-68